x

New London Ledge Ct - Ledge Light Weather Station (ldlc3) Weather Station

4:40 - Wed 25th May 2016 All times are EDT. -4 hours from GMT.

  • Wind
    1mph, 2mph gusts
  • Luft Temp 54°f
  • Sea Pressure 1015.8mb
  • New London Ledge Ct - Ledge Light Weather Station
  • New London Ledge Ct - Ledge Light Weather Station

More Historic Weather Station data

Upgrade to MSW Pro to gain access to the past 30 days of data for over 8000 Wavebouys and Weather Stations around the globe.

Join Pro

Comparision Forecast

View Surf forecast
   
Mi 05/25 4:40 1 2 mph 1015.8mb 54f
4:25 3
mph
1015.8mb 54f
4:10 2 3 mph 1015.6mb 54f
3:55 1 2 mph 1015.5mb 54f
3:40 3 5 mph 1015.4mb 54f
3:25 2 3 mph 1015.3mb 55f
3:10  -  1 mph 1015.2mb 55f
2:55  -  1 mph 1015.1mb 55f
2:40 2 3 mph 1015.1mb 55f
2:25 2 3 mph 1015mb 55f
2:10 2 3 mph 1014.8mb 55f
1:55 2 3 mph 1014.8mb 55f
1:40 3 5 mph 1014.9mb 55f
1:25 2 3 mph 1015mb 55f
1:10 3 5 mph 1015mb 56f
Di 05/24 7:55 1 2 mph 1010.3mb 56f
7:40 2 3 mph 1013.1mb 57f
7:25  -  2 mph 1012.9mb 57f
7:10 1 2 mph 1012.9mb 57f
6:55 6 7 mph 1012.8mb 56f
6:40 6 7 mph 1012.8mb 56f
6:25 6 7 mph 1012.5mb 57f
6:10 7 8 mph 1012.4mb 56f
5:55 7 9 mph 1012.4mb 56f
5:40 7 9 mph 1012.2mb 57f
5:25 10 11 mph 1012.2mb 57f
5:10 10 11 mph 1012.2mb 57f
4:55 8 10 mph 1012.2mb 56f
4:40 10 11 mph 1012mb 56f
4:25 10 11 mph 1011.8mb 56f
4:10 7 9 mph 1011.6mb 56f
3:55 10 13 mph 1011.6mb 56f
3:40 9 10 mph 1011.7mb 56f
3:25 9 13 mph 1011.5mb 57f
3:10 8 9 mph 1011.6mb 56f
2:55 10
mph
1011.7mb 56f
2:40 11
mph
1011.6mb 56f
2:25 11
mph
1011.6mb 56f
2:10 11 13 mph 1011.6mb 55f
1:55 11 13 mph 1011.4mb 55f
1:40 8 9 mph 1011.4mb 55f
1:25 8
mph
1011.4mb 55f
1:10 7 8 mph 1011.6mb 55f
12:55 6
mph
1011.6mb 56f
12:40 5
mph
1011.5mb 56f
12:25 5 6 mph 1011.4mb 56f
12:10 6 7 mph 1011.6mb 56f
11:55 8 9 mph 1011.3mb 56f
11:40 6 7 mph 1008.4mb 58f
11:25 5 6 mph 1011.2mb 58f
11:10 3 6 mph 1011.1mb 59f
10:55 7 9 mph 1010.9mb 59f
10:40 13 16 mph 1010.8mb 59f
10:25 9 13 mph 1010.8mb 59f
10:10 9 11 mph 1010.8mb 59f
9:55 13 17 mph 1010.7mb 58f
9:40 10 14 mph 1010.8mb 58f
9:25 9 11 mph 1010.8mb 58f
9:10 10 15 mph 1010.8mb 58f
8:55 14 17 mph 1010.6mb 58f
8:40 14 16 mph 1006.4mb 58f
8:25 13 16 mph 1010.5mb 58f
8:10 13 16 mph 1010.4mb 58f
7:55 11 17 mph 1010.4mb 58f
7:40 11 14 mph 1010.3mb 58f
7:25 13 16 mph 1010.2mb 57f
7:10 13 18 mph 1010.2mb 57f
6:55 8 11 mph 1010.4mb 57f
6:40 8 11 mph 1010.5mb 57f
6:25 7 10 mph 1010.4mb 57f
6:10 3 6 mph 1010.5mb 57f
5:55 3 5 mph 1010.7mb 57f
5:40 1 3 mph 1010.7mb 57f
5:25 3 10 mph 1010.7mb 57f
5:10 9 15 mph 1010.7mb 56f
4:55 8 13 mph 1009.7mb 58f
4:40 13 16 mph 1009.5mb 57f
4:25 10 11 mph 1009.7mb 57f
4:10 13 15 mph 1009.7mb 57f
3:55 14 17 mph 1009.7mb 57f
3:40 15 17 mph 1009.7mb 57f
3:25 11 14 mph 1010mb 57f
3:10 15 16 mph 1009.9mb 57f
2:55 13 15 mph 1010.3mb 56f
2:40 11 14 mph 1011.2mb 56f
2:25 5 7 mph 1010.5mb 57f
2:10 9 13 mph 1010.6mb 57f
1:55 6 7 mph 1010.7mb 57f
1:40 10 15 mph 1010.5mb 57f
1:25 11 15 mph 1010.8mb 57f
1:10 16 18 mph 1010.9mb 57f
Mo 05/23 7:55 5 6 mph 1011.3mb 65f
7:40 2 5 mph 1011.4mb 63f
7:25 6 7 mph 1011.3mb 64f
7:10 7
mph
1011.4mb 65f
6:55 6 7 mph 1011.1mb 64f
6:40 5 6 mph 1010.8mb 64f
6:25 5
mph
1010.7mb 64f
6:10 3 5 mph 1010.4mb 65f
5:55 6
mph
1010.4mb 66f
5:40 6 7 mph 1010.4mb 65f
5:25 7
mph
1010.7mb 64f
5:10 7
mph
1010.8mb 64f
4:55 6
mph
1010.9mb 65f
4:40 6 8 mph 1011mb 63f
4:25 8 9 mph 1011.2mb 63f
4:10 7 9 mph 1011.4mb 64f
3:55 3 5 mph 1011.1mb 66f
3:40 6
mph
1008.4mb 67f
3:25 6
mph
1011.1mb 66f
3:10 8
mph
1011.3mb 66f
2:55 10 13 mph 1011.3mb 64f
2:40 7 8 mph 1011.2mb 64f
2:25 9
mph
1011.4mb 63f
2:10 8 9 mph 1011.5mb 62f
1:55 6 7 mph 1011.8mb 60f
1:40 7 8 mph 1011.7mb 60f
1:25 7 8 mph 1011.8mb 59f
1:10 7 8 mph 1011.9mb 59f
12:55 9 10 mph 1012mb 59f
12:40 10 11 mph 1012mb 60f
12:25 10 11 mph 1012mb 61f
12:10 9 11 mph 1012mb 58f
11:55 11
mph
1012mb 61f
11:40 13
mph
1012.1mb 62f
11:25 9
mph
1012.2mb 63f
11:10 10
mph
1012.4mb 62f
10:55 8
mph
1012.4mb 60f
10:40 7
mph
1012.4mb 61f
10:25 6 7 mph 1012.5mb 61f
10:10 3 5 mph 1012.8mb 61f
9:55 3
mph
1013mb 60f
9:40 2
mph
1013.1mb 65f
9:25  -  1 mph 1013.1mb 66f
9:10 2 3 mph 1013.2mb 64f
8:55 6 7 mph 1013.3mb 63f
8:40 7 8 mph 1013.1mb 62f
8:25 8
mph
1013.1mb 60f
8:10 8
mph
1013.2mb 58f
7:55 7 8 mph 1013.2mb 58f
7:40 5
mph
1013.2mb 56f
7:25 6 7 mph 1013.2mb 54f
7:10 5 6 mph 1013.1mb 54f
6:55 3 5 mph 1013.1mb 54f
6:40 2 3 mph 1012.9mb 54f
6:25 7
mph
1012.5mb 54f
6:10 9 10 mph 1012mb 53f
5:55 7 8 mph 1012.3mb 53f
5:40 6 7 mph 1012.2mb 53f
5:25 7
mph
1011.9mb 52f
5:10 7 8 mph 1012mb 51f
4:55 3 5 mph 1012.2mb 52f
4:40 6 7 mph 1012mb 52f
4:25 5 6 mph 1012mb 52f
4:10 6 7 mph 1012mb 52f
3:55 6 7 mph 1011.8mb 52f
3:40 6 7 mph 1011.6mb 52f
3:25 3 6 mph 1011.5mb 53f
3:10 6 7 mph 1011.4mb 53f
2:55 9 10 mph 1011.4mb 54f
2:40 3 5 mph 1011.5mb 53f
2:25 6
mph
1011.6mb 53f
2:10 3 6 mph 1011.7mb 53f
1:55 3
mph
1011.9mb 53f
1:40 2 3 mph 1012mb 53f
1:25 5
mph
1011.9mb 54f
1:10 5 6 mph 1012mb 54f
So 05/22 7:55 5
mph
1010.4mb 56f
7:40 3 5 mph 1010.2mb 56f
7:25 7 8 mph 1009.9mb 56f
7:10 3
mph
1009.7mb 56f
6:55 5 6 mph 1009.6mb 56f
6:40 5 6 mph 1009.3mb 56f
6:25 3 5 mph 1009.2mb 56f
6:10 6 7 mph 1009.4mb 56f
5:55 2
mph
1009.3mb 59f
5:40  -  2 mph 1009.2mb 57f
5:25 5 7 mph 1009.3mb 57f
5:10 9 10 mph 1009.2mb 57f
4:55 10
mph
1008.9mb 57f
4:40 10 11 mph 1008.8mb 58f
4:25 11 13 mph 1008.8mb 58f
4:10 9 11 mph 1008.6mb 59f
3:55 5 6 mph 1008.6mb 61f
3:40 8 9 mph 1008.5mb 60f
3:25 9 10 mph 1008.5mb 60f
3:10 11 13 mph 1008.4mb 59f
2:55 7 11 mph 1008.5mb 60f
2:40 9 15 mph 1008.4mb 68f
2:25 15 20 mph 1008.4mb 67f
2:10 14 21 mph 1008.4mb 67f
1:55 13 16 mph 1008.5mb 66f
1:40 13 18 mph 1008.3mb 66f
1:25 11 17 mph 1008.3mb 66f
1:10 10 14 mph 1008.5mb 65f
12:55 7 13 mph 1008.6mb 65f
12:40 9 13 mph 1008.6mb 64f
12:25 6 8 mph 1008.7mb 64f
12:10 7 9 mph 1009mb 63f
11:55 10 15 mph 1008.9mb 62f
11:40 8 10 mph 1009.1mb 61f
11:25 8 13 mph 1009.1mb 61f
11:10 9 11 mph 1009.2mb 61f
10:55 9 11 mph 1009.2mb 60f
10:40 8 10 mph 1009.2mb 59f
10:25 7 9 mph 1009.1mb 58f
10:10 8 10 mph 1008.9mb 57f
9:55 6 8 mph 1009mb 57f
9:40 9 10 mph 1009.1mb 57f
9:25 10 11 mph 1009.2mb 58f
9:10 9 10 mph 1009.2mb 57f
8:55 9 11 mph 1009mb 58f
8:40 7 8 mph 1008.9mb 58f
8:25 7 10 mph 1009mb 58f
8:10 9 11 mph 1008.8mb 58f
7:55 11 14 mph 1008.5mb 57f
7:40 13 15 mph 1008.5mb 57f
7:25 13 15 mph 1008.4mb 56f
7:10 9 11 mph 1008.5mb 56f
6:55 9 11 mph 1008.5mb 56f
6:40 10 13 mph 1008.3mb 56f
6:25 15 16 mph 1008.1mb 56f
6:10 10 14 mph 1008.1mb 56f
5:55 13 15 mph 1008.1mb 56f
5:40 11 13 mph 1008.4mb 56f
5:25 11 13 mph 1008.3mb 56f
5:10 11
mph
1008.1mb 55f
4:55 10 11 mph 1008.1mb 55f
4:40 10 13 mph 1008mb 55f
4:25 11 14 mph 1008mb 55f
4:10 10 14 mph 1008mb 55f
3:55 10 13 mph 1008.2mb 55f
3:40 8 9 mph 1008.5mb 55f
3:25 10 13 mph 1008.6mb 55f
3:10 10 13 mph 1006mb 55f
2:55 9 11 mph 1009.1mb 55f
2:40 9 11 mph 1009.2mb 56f
2:25 8 10 mph 1009.7mb 56f
2:10 8 10 mph 1009.7mb 56f
1:55 9 10 mph 1010.1mb 56f
1:40 7 8 mph 1010.2mb 56f
1:25 6 8 mph 1010.4mb 56f
1:10 7 8 mph 1010.4mb 56f
Sa 05/21 7:55 6 7 mph 1014.7mb 57f
7:40 5
mph
1014.9mb 56f
7:25 6
mph
1014.9mb 56f
7:10 6 7 mph 1015.3mb 56f
6:55 9
mph
1015.2mb 56f
6:40 8 9 mph 1015.2mb 56f
6:25 10 11 mph 1015.2mb 56f
6:10 10 11 mph 1015.2mb 56f
5:55 9 10 mph 1015.4mb 56f
5:40 9
mph
1015.8mb 56f
5:25 10 11 mph 1016.1mb 56f
5:10 10 11 mph 1016.3mb 56f
4:55 5 6 mph 1016.5mb 56f
4:40 3 5 mph 1016.8mb 56f
4:25 3
mph
1017mb 57f
4:10 2 3 mph 1017.2mb 58f
3:55  -  1 mph 1017.3mb 57f
3:40  -  2 mph 1017.4mb 58f
3:25  -  2 mph 1017.7mb 58f
3:10  -  2 mph 1017.8mb 58f
2:55 5 6 mph 1018.1mb 56f
2:40 7
mph
1018mb 55f
2:25 5 6 mph 1018.2mb 54f
2:10 9 11 mph 1018.4mb 55f
1:55 9 11 mph 1018.5mb 55f
1:40 9 11 mph 1018.5mb 55f
1:25 2 3 mph 1018.9mb 55f
1:10 6 8 mph 1019.3mb 55f
12:55 7 9 mph 1019.3mb 57f
12:40 6
mph
1019.5mb 58f
12:25 5 6 mph 1019.7mb 58f
12:10 5 6 mph 1019.8mb 57f
11:55 6 7 mph 1020mb 56f
11:40 3 5 mph 1020mb 58f
11:25 6 7 mph 1020mb 57f
11:10 7
mph
1020.2mb 56f
10:55 8
mph
1020.3mb 55f
10:40 8
mph
1020.6mb 55f
10:25 7 8 mph 1020.4mb 55f
10:10 7 8 mph 1020.5mb 55f
9:55 8
mph
1020.4mb 54f
9:40 9
mph
1020.7mb 54f
9:25 6 7 mph 1020.7mb 55f